PWSweather.com
Personal Weather Stations
Station Observations
LABLIDAR
PotenzaIT

PotenzaIT

Lat: 40.6467, Lon: 15.809

Elevation: 2395

Station Type: Oregon WMRS200

Latest ConditionsUpdated 11:34:58 AM GMT+01:01 Friday, Apr 18, 2014
Currently Today's Max Today's Min Today's Average
Temperature 63.5°F17.5°C 63.9°F17.7°C 58.9°F14.9°C 60.6°F15.9°C
Dew Point 35.4°F1.9°C 35.4°F1.9°C 30.9°F-0.6°C 32.5°F0.3°C
Winds 1.7 mph N2.7 kmh N 5.1 mph NNE8.2 kmh NNE - 2.4 mph 3.9 kmh
Wind Gusts 4.9 mph7.9 kmh 9.6 mph15.4 kmh - -
Humidity 35% 35% 34% 35%
Pressure 27.46 in929.9 mb 27.52 in931.9 mb 27.43 in928.9 mb -
Precipitation - 0.04 in1.0 mm - -
Hour Temp Dew Point Humidity Winds Wind Gusts Pressure Precip Precip Rate Daily Precip Total
11:34 AM 63.5°F17.5°C 35.4°F1.9°C 35% 1.7 mph N2.7 kmh N 4.9 mph7.9 kmh 27.46 in929.9 mb 0.00 in0.0 mm 0.00 in/hr0.0 mm/hr 0.04 in1.0 mm
11:29 AM 63.3°F17.4°C 35.2°F1.8°C 35% 3.0 mph NW4.8 kmh NW 4.9 mph7.9 kmh 27.46 in929.9 mb 0.00 in0.0 mm 0.00 in/hr0.0 mm/hr 0.04 in1.0 mm
11:24 AM 63.0°F17.2°C 34.9°F1.6°C 35% 2.4 mph N3.9 kmh N 4.9 mph7.9 kmh 27.46 in929.9 mb 0.00 in0.0 mm 0.00 in/hr0.0 mm/hr 0.04 in1.0 mm
11:19 AM 62.8°F17.1°C 34.8°F1.6°C 35% 3.1 mph NE5.0 kmh NE 6.0 mph9.7 kmh 27.46 in929.9 mb 0.00 in0.0 mm 0.00 in/hr0.0 mm/hr 0.04 in1.0 mm
11:14 AM 62.8°F17.1°C 34.8°F1.6°C 35% 4.6 mph NE7.4 kmh NE 6.0 mph9.7 kmh 27.46 in929.9 mb 0.00 in0.0 mm 0.00 in/hr0.0 mm/hr 0.04 in1.0 mm
11:09 AM 63.0°F17.2°C 34.4°F1.3°C 35% 4.3 mph N6.9 kmh N 6.9 mph11.1 kmh 27.46 in929.9 mb 0.00 in0.0 mm 0.00 in/hr0.0 mm/hr 0.04 in1.0 mm
11:04 AM 63.4°F17.4°C 34.6°F1.4°C 34% 3.7 mph NW6.0 kmh NW 7.4 mph11.9 kmh 27.46 in929.9 mb 0.00 in0.0 mm 0.00 in/hr0.0 mm/hr 0.04 in1.0 mm
10:59 AM 63.7°F17.6°C 34.8°F1.6°C 34% 3.8 mph NNE6.1 kmh NNE 7.4 mph11.9 kmh 27.46 in929.9 mb 0.00 in0.0 mm 0.00 in/hr0.0 mm/hr 0.04 in1.0 mm
10:54 AM 63.5°F17.5°C 35.2°F1.8°C 35% 2.0 mph NE3.2 kmh NE 4.3 mph6.9 kmh 27.46 in929.9 mb 0.00 in0.0 mm 0.00 in/hr0.0 mm/hr 0.04 in1.0 mm
10:49 AM 63.2°F17.3°C 34.4°F1.3°C 34% 0.3 mph E0.5 kmh E 2.2 mph3.5 kmh 27.46 in929.9 mb 0.00 in0.0 mm 0.00 in/hr0.0 mm/hr 0.04 in1.0 mm
10:44 AM 63.0°F17.2°C 34.2°F1.2°C 34% Calm Calm 2.2 mph3.5 kmh 27.46 in929.9 mb 0.00 in0.0 mm 0.00 in/hr0.0 mm/hr 0.04 in1.0 mm
10:39 AM 63.0°F17.2°C 34.2°F1.2°C 34% 1.0 mph SE1.6 kmh SE 2.2 mph3.5 kmh 27.46 in929.9 mb 0.00 in0.0 mm 0.00 in/hr0.0 mm/hr 0.04 in1.0 mm
10:34 AM 63.4°F17.4°C 34.5°F1.4°C 34% 0.7 mph ENE1.1 kmh ENE 2.0 mph3.2 kmh 27.46 in929.9 mb 0.00 in0.0 mm 0.00 in/hr0.0 mm/hr 0.04 in1.0 mm
10:29 AM 63.7°F17.6°C 34.8°F1.6°C 34% - N16091.8 kmh N -- 27.46 in929.9 mb 0.00 in0.0 mm 0.00 in/hr0.0 mm/hr 0.04 in1.0 mm
10:24 AM 63.9°F17.7°C 35.0°F1.7°C 34% - N16091.8 kmh N -- 27.46 in929.9 mb 0.00 in0.0 mm 0.00 in/hr0.0 mm/hr 0.04 in1.0 mm
10:19 AM 63.5°F17.5°C 34.6°F1.4°C 34% 3.6 mph NE5.8 kmh NE 1.6 mph2.6 kmh 27.46 in929.9 mb 0.00 in0.0 mm 0.00 in/hr0.0 mm/hr 0.04 in1.0 mm
10:14 AM 63.2°F17.3°C 34.4°F1.3°C 34% 3.6 mph NE5.8 kmh NE 1.6 mph2.6 kmh 27.46 in929.9 mb 0.00 in0.0 mm 0.00 in/hr0.0 mm/hr 0.04 in1.0 mm
10:09 AM 63.1°F17.3°C 34.3°F1.3°C 34% 3.6 mph NE5.8 kmh NE 3.6 mph5.8 kmh 27.46 in929.9 mb 0.00 in0.0 mm 0.00 in/hr0.0 mm/hr 0.04 in1.0 mm
10:04 AM 63.2°F17.3°C 34.4°F1.3°C 34% 2.9 mph NW4.7 kmh NW 3.8 mph6.1 kmh 27.46 in929.9 mb 0.00 in0.0 mm 0.00 in/hr0.0 mm/hr 0.04 in1.0 mm
09:59 AM 63.5°F17.5°C 34.7°F1.5°C 34% 2.3 mph NE3.7 kmh NE 4.9 mph7.9 kmh 27.46 in929.9 mb 0.00 in0.0 mm 0.00 in/hr0.0 mm/hr 0.04 in1.0 mm
09:54 AM 63.8°F17.7°C 35.0°F1.7°C 34% 3.1 mph NE5.0 kmh NE 4.9 mph7.9 kmh 27.46 in929.9 mb 0.00 in0.0 mm 0.00 in/hr0.0 mm/hr 0.04 in1.0 mm
09:49 AM 63.9°F17.7°C 35.0°F1.7°C 34% 2.3 mph NNE3.7 kmh NNE 5.6 mph9.0 kmh 27.46 in929.9 mb 0.00 in0.0 mm 0.00 in/hr0.0 mm/hr 0.04 in1.0 mm
09:44 AM 63.6°F17.6°C 34.7°F1.5°C 34% 2.7 mph NW4.3 kmh NW 5.6 mph9.0 kmh 27.46 in929.9 mb 0.00 in0.0 mm 0.00 in/hr0.0 mm/hr 0.04 in1.0 mm
09:39 AM 63.4°F17.4°C 34.6°F1.4°C 34% 2.5 mph NE4.0 kmh NE 4.3 mph6.9 kmh 27.46 in929.9 mb 0.00 in0.0 mm 0.00 in/hr0.0 mm/hr 0.04 in1.0 mm
09:34 AM 63.3°F17.4°C 34.5°F1.4°C 34% 3.3 mph NNE5.3 kmh NNE 4.3 mph6.9 kmh 27.46 in929.9 mb 0.00 in0.0 mm 0.00 in/hr0.0 mm/hr 0.04 in1.0 mm
09:29 AM 63.4°F17.4°C 34.6°F1.4°C 34% 3.9 mph NW6.3 kmh NW 3.8 mph6.1 kmh 27.46 in929.9 mb 0.00 in0.0 mm 0.00 in/hr0.0 mm/hr 0.04 in1.0 mm
09:24 AM 63.7°F17.6°C 34.8°F1.6°C 34% 3.6 mph W5.8 kmh W 3.1 mph5.0 kmh 27.43 in928.9 mb 0.00 in0.0 mm 0.00 in/hr0.0 mm/hr 0.04 in1.0 mm
09:19 AM 63.9°F17.7°C 35.0°F1.7°C 34% 2.5 mph S4.0 kmh S 4.0 mph6.4 kmh 27.43 in928.9 mb 0.00 in0.0 mm 0.00 in/hr0.0 mm/hr 0.04 in1.0 mm
09:14 AM 63.7°F17.6°C 34.9°F1.6°C 34% 2.7 mph NW4.3 kmh NW 8.5 mph13.7 kmh 27.43 in928.9 mb 0.00 in0.0 mm 0.00 in/hr0.0 mm/hr 0.12 in3.0 mm
09:09 AM 63.2°F17.3°C 34.4°F1.3°C 34% 3.3 mph NE5.3 kmh NE 8.5 mph13.7 kmh 27.46 in929.9 mb 0.00 in0.0 mm 0.00 in/hr0.0 mm/hr 0.12 in3.0 mm
09:04 AM 62.8°F17.1°C 34.1°F1.2°C 34% 3.4 mph W5.5 kmh W 4.5 mph7.2 kmh 27.46 in929.9 mb 0.00 in0.0 mm 0.00 in/hr0.0 mm/hr 0.12 in3.0 mm
08:59 AM 62.5°F16.9°C 33.8°F1.0°C 34% 3.8 mph N6.1 kmh N 5.6 mph9.0 kmh 27.46 in929.9 mb 0.00 in0.0 mm 0.00 in/hr0.0 mm/hr 0.12 in3.0 mm
08:54 AM 62.4°F16.9°C 33.7°F0.9°C 34% 3.8 mph N6.1 kmh N 5.6 mph9.0 kmh 27.46 in929.9 mb 0.00 in0.0 mm 0.00 in/hr0.0 mm/hr 0.12 in3.0 mm
08:49 AM 62.6°F17.0°C 33.9°F1.1°C 34% 4.9 mph NE7.9 kmh NE 5.6 mph9.0 kmh 27.46 in929.9 mb 0.00 in0.0 mm 0.00 in/hr0.0 mm/hr 0.12 in3.0 mm
08:44 AM 62.6°F17.0°C 33.9°F1.1°C 34% 4.9 mph NE7.9 kmh NE 5.6 mph9.0 kmh 27.46 in929.9 mb 0.00 in0.0 mm 0.00 in/hr0.0 mm/hr 0.04 in1.0 mm
08:39 AM 62.5°F16.9°C 34.0°F1.1°C 34% 4.9 mph NE7.9 kmh NE 5.6 mph9.0 kmh 27.46 in929.9 mb 0.00 in0.0 mm 0.00 in/hr0.0 mm/hr 0.12 in3.0 mm
08:34 AM 61.9°F16.6°C 33.8°F1.0°C 35% 2.2 mph N3.5 kmh N 3.4 mph5.5 kmh 27.46 in929.9 mb 0.00 in0.0 mm 0.00 in/hr0.0 mm/hr 0.12 in3.0 mm
08:29 AM 61.7°F16.5°C 33.0°F0.6°C 34% 2.7 mph NE4.3 kmh NE 4.9 mph7.9 kmh 27.46 in929.9 mb 0.00 in0.0 mm 0.00 in/hr0.0 mm/hr 0.04 in1.0 mm
08:24 AM 61.4°F16.3°C 32.8°F0.4°C 34% 2.7 mph NE4.3 kmh NE 4.9 mph7.9 kmh 27.46 in929.9 mb 0.00 in0.0 mm 0.00 in/hr0.0 mm/hr 0.12 in3.0 mm
08:19 AM 61.3°F16.3°C 32.8°F0.4°C 34% 2.2 mph SSW3.5 kmh SSW 5.4 mph8.7 kmh 27.46 in929.9 mb 0.00 in0.0 mm 0.00 in/hr0.0 mm/hr 0.04 in1.0 mm
08:14 AM 61.6°F16.4°C 33.0°F0.6°C 34% 3.1 mph NW5.0 kmh NW 5.4 mph8.7 kmh 27.46 in929.9 mb 0.00 in0.0 mm 0.00 in/hr0.0 mm/hr 0.04 in1.0 mm
08:09 AM 61.8°F16.6°C 33.2°F0.7°C 34% 2.6 mph N4.2 kmh N 3.8 mph6.1 kmh 27.46 in929.9 mb 0.00 in0.0 mm 0.00 in/hr0.0 mm/hr 0.04 in1.0 mm
08:04 AM 61.8°F16.6°C 33.5°F0.8°C 34% - N16091.8 kmh N -- 27.46 in929.9 mb 0.00 in0.0 mm 0.00 in/hr0.0 mm/hr 0.04 in1.0 mm
07:59 AM 61.4°F16.3°C 33.5°F0.8°C 35% - N16091.8 kmh N -- 27.46 in929.9 mb 0.00 in0.0 mm 0.00 in/hr0.0 mm/hr 0.04 in1.0 mm
07:54 AM 61.1°F16.2°C 33.2°F0.7°C 35% - N16091.8 kmh N -- 27.46 in929.9 mb 0.00 in0.0 mm 0.00 in/hr0.0 mm/hr 0.04 in1.0 mm
07:49 AM 60.8°F16.0°C 33.0°F0.6°C 35% - N16091.8 kmh N -- 27.46 in929.9 mb 0.00 in0.0 mm 0.00 in/hr0.0 mm/hr 0.04 in1.0 mm
07:44 AM 60.7°F15.9°C 32.9°F0.5°C 35% - N16091.8 kmh N -- 27.46 in929.9 mb 0.00 in0.0 mm 0.00 in/hr0.0 mm/hr 0.04 in1.0 mm
07:39 AM 60.9°F16.1°C 32.7°F0.4°C 35% - N16091.8 kmh N -- 27.46 in929.9 mb 0.00 in0.0 mm 0.00 in/hr0.0 mm/hr 0.04 in1.0 mm
07:34 AM 61.0°F16.1°C 32.6°F0.3°C 34% - N16091.8 kmh N -- 27.46 in929.9 mb 0.00 in0.0 mm 0.00 in/hr0.0 mm/hr 0.04 in1.0 mm
07:29 AM 60.9°F16.1°C 33.1°F0.6°C 35% 2.9 mph N4.7 kmh N 2.9 mph4.7 kmh 27.46 in929.9 mb 0.04 in1.0 mm 0.48 in/hr12.2 mm/hr 0.04 in1.0 mm
07:24 AM 60.5°F15.8°C 32.7°F0.4°C 35% 2.9 mph N4.7 kmh N 2.9 mph4.7 kmh 27.46 in929.9 mb 0.00 in0.0 mm 0.00 in/hr0.0 mm/hr 0.08 in2.0 mm
07:19 AM 60.2°F15.7°C 32.4°F0.2°C 35% 2.9 mph N4.7 kmh N 4.9 mph7.9 kmh 27.46 in929.9 mb 0.04 in1.0 mm 0.48 in/hr12.2 mm/hr 0.04 in1.0 mm
07:14 AM 59.9°F15.5°C 32.2°F0.1°C 35% 3.1 mph N5.0 kmh N 4.9 mph7.9 kmh 27.46 in929.9 mb 0.00 in0.0 mm 0.00 in/hr0.0 mm/hr 0.04 in1.0 mm
07:09 AM 59.7°F15.4°C 32.0°F0.0°C 35% 2.9 mph N4.7 kmh N 4.3 mph6.9 kmh 27.46 in929.9 mb 0.04 in1.0 mm 0.00 in/hr0.0 mm/hr 0.04 in1.0 mm
07:04 AM 59.7°F15.4°C 32.0°F0.0°C 35% 2.4 mph NNW3.9 kmh NNW 4.0 mph6.4 kmh 27.46 in929.9 mb 0.04 in1.0 mm 0.00 in/hr0.0 mm/hr 0.04 in1.0 mm
06:59 AM 59.8°F15.4°C 32.2°F0.1°C 35% 2.9 mph NNW4.7 kmh NNW 7.4 mph11.9 kmh 27.46 in929.9 mb 0.04 in1.0 mm 0.00 in/hr0.0 mm/hr 0.04 in1.0 mm
06:54 AM 60.2°F15.7°C 32.4°F0.2°C 35% 5.1 mph NNE8.2 kmh NNE 7.4 mph11.9 kmh 27.46 in929.9 mb 0.04 in1.0 mm 0.00 in/hr0.0 mm/hr 0.04 in1.0 mm
06:49 AM 60.2°F15.7°C 32.5°F0.3°C 35% 3.5 mph NNE5.6 kmh NNE 9.6 mph15.4 kmh 27.46 in929.9 mb 0.04 in1.0 mm 0.00 in/hr0.0 mm/hr 0.04 in1.0 mm
06:44 AM 59.8°F15.4°C 32.2°F0.1°C 35% 4.2 mph N6.8 kmh N 9.6 mph15.4 kmh 27.46 in929.9 mb 0.04 in1.0 mm 0.00 in/hr0.0 mm/hr 0.04 in1.0 mm
06:39 AM 59.7°F15.4°C 32.0°F0.0°C 35% 3.6 mph NNE5.8 kmh NNE 6.9 mph11.1 kmh 27.46 in929.9 mb 0.04 in1.0 mm 0.00 in/hr0.0 mm/hr 0.04 in1.0 mm
06:34 AM 59.7°F15.4°C 32.0°F0.0°C 35% 2.7 mph NNW4.3 kmh NNW 5.4 mph8.7 kmh 27.46 in929.9 mb 0.04 in1.0 mm 0.48 in/hr12.2 mm/hr 0.04 in1.0 mm
06:29 AM 59.6°F15.3°C 32.0°F0.0°C 35% 3.3 mph N5.3 kmh N 5.4 mph8.7 kmh 27.46 in929.9 mb 0.00 in0.0 mm 0.00 in/hr0.0 mm/hr 0.00 in0.0 mm
06:24 AM 59.5°F15.3°C 31.8°F-0.1°C 35% 2.1 mph NNE3.4 kmh NNE 5.6 mph9.0 kmh 27.46 in929.9 mb 0.00 in0.0 mm 0.00 in/hr0.0 mm/hr 0.00 in0.0 mm
06:19 AM 59.4°F15.2°C 31.7°F-0.2°C 35% 3.1 mph NNE5.0 kmh NNE 6.3 mph10.1 kmh 27.46 in929.9 mb 0.00 in0.0 mm 0.00 in/hr0.0 mm/hr 0.00 in0.0 mm
06:14 AM 59.4°F15.2°C 31.7°F-0.2°C 35% 3.2 mph NNW5.1 kmh NNW 6.3 mph10.1 kmh 27.46 in929.9 mb 0.00 in0.0 mm 0.00 in/hr0.0 mm/hr 0.00 in0.0 mm
06:09 AM 59.5°F15.3°C 31.9°F-0.1°C 35% 2.6 mph N4.2 kmh N 5.8 mph9.3 kmh 27.46 in929.9 mb 0.00 in0.0 mm 0.00 in/hr0.0 mm/hr 0.00 in0.0 mm
06:04 AM 59.8°F15.4°C 32.1°F0.1°C 35% 2.4 mph NE3.9 kmh NE 6.5 mph10.5 kmh 27.46 in929.9 mb 0.00 in0.0 mm 0.00 in/hr0.0 mm/hr 0.00 in0.0 mm
05:59 AM 60.1°F15.6°C 32.4°F0.2°C 35% 4.0 mph NE6.4 kmh NE 6.5 mph10.5 kmh 27.46 in929.9 mb 0.00 in0.0 mm 0.00 in/hr0.0 mm/hr 0.00 in0.0 mm
05:54 AM 59.9°F15.5°C 32.2°F0.1°C 35% 2.7 mph NW4.3 kmh NW 6.3 mph10.1 kmh 27.46 in929.9 mb 0.00 in0.0 mm 0.00 in/hr0.0 mm/hr 0.00 in0.0 mm
05:49 AM 59.7°F15.4°C 32.0°F0.0°C 35% 3.7 mph N6.0 kmh N 6.3 mph10.1 kmh 27.46 in929.9 mb 0.00 in0.0 mm 0.00 in/hr0.0 mm/hr 0.00 in0.0 mm
05:44 AM 59.7°F15.4°C 32.0°F0.0°C 35% 3.3 mph N5.3 kmh N 4.9 mph7.9 kmh 27.46 in929.9 mb 0.00 in0.0 mm 0.00 in/hr0.0 mm/hr 0.00 in0.0 mm
05:39 AM 59.6°F15.3°C 32.0°F0.0°C 35% 2.7 mph N4.3 kmh N 6.3 mph10.1 kmh 27.46 in929.9 mb 0.00 in0.0 mm 0.00 in/hr0.0 mm/hr 0.00 in0.0 mm
05:34 AM 59.6°F15.3°C 32.0°F0.0°C 35% 3.4 mph NNW5.5 kmh NNW 6.5 mph10.5 kmh 27.46 in929.9 mb 0.00 in0.0 mm 0.00 in/hr0.0 mm/hr 0.00 in0.0 mm
05:29 AM 59.6°F15.3°C 31.9°F-0.1°C 35% 3.7 mph NE6.0 kmh NE 6.5 mph10.5 kmh 27.46 in929.9 mb 0.00 in0.0 mm 0.00 in/hr0.0 mm/hr 0.00 in0.0 mm
05:24 AM 59.5°F15.3°C 31.9°F-0.1°C 35% 4.1 mph NNW6.6 kmh NNW 6.5 mph10.5 kmh 27.46 in929.9 mb 0.00 in0.0 mm 0.00 in/hr0.0 mm/hr 0.00 in0.0 mm
05:19 AM 59.5°F15.3°C 31.9°F-0.1°C 35% 4.0 mph N6.4 kmh N 6.5 mph10.5 kmh 27.46 in929.9 mb 0.00 in0.0 mm 0.00 in/hr0.0 mm/hr 0.00 in0.0 mm
05:14 AM 59.4°F15.2°C 31.8°F-0.1°C 35% 3.0 mph NE4.8 kmh NE 6.0 mph9.7 kmh 27.46 in929.9 mb 0.00 in0.0 mm 0.00 in/hr0.0 mm/hr 0.00 in0.0 mm
05:09 AM 59.4°F15.2°C 31.7°F-0.2°C 35% 3.8 mph NNW6.1 kmh NNW 5.8 mph9.3 kmh 27.46 in929.9 mb 0.00 in0.0 mm 0.00 in/hr0.0 mm/hr 0.00 in0.0 mm
05:04 AM 59.4°F15.2°C 31.7°F-0.2°C 35% 2.7 mph N4.3 kmh N 5.6 mph9.0 kmh 27.46 in929.9 mb 0.00 in0.0 mm 0.00 in/hr0.0 mm/hr 0.00 in0.0 mm
04:59 AM 59.4°F15.2°C 31.7°F-0.2°C 35% 2.8 mph N4.5 kmh N 5.6 mph9.0 kmh 27.46 in929.9 mb 0.00 in0.0 mm 0.00 in/hr0.0 mm/hr 0.00 in0.0 mm
04:54 AM 59.2°F15.1°C 31.6°F-0.2°C 35% 4.3 mph NNE6.9 kmh NNE 5.4 mph8.7 kmh 27.46 in929.9 mb 0.00 in0.0 mm 0.00 in/hr0.0 mm/hr 0.00 in0.0 mm
04:49 AM 59.2°F15.1°C 31.6°F-0.2°C 35% 1.3 mph N2.1 kmh N 3.8 mph6.1 kmh 27.46 in929.9 mb 0.00 in0.0 mm 0.00 in/hr0.0 mm/hr 0.00 in0.0 mm
04:44 AM 59.2°F15.1°C 31.6°F-0.2°C 35% 2.1 mph N3.4 kmh N 3.4 mph5.5 kmh 27.46 in929.9 mb 0.00 in0.0 mm 0.00 in/hr0.0 mm/hr 0.00 in0.0 mm
04:39 AM 59.2°F15.1°C 31.6°F-0.2°C 35% 2.2 mph N3.5 kmh N 4.7 mph7.6 kmh 27.46 in929.9 mb 0.00 in0.0 mm 0.00 in/hr0.0 mm/hr 0.00 in0.0 mm
04:34 AM 59.3°F15.2°C 31.4°F-0.3°C 35% 2.4 mph N3.9 kmh N 4.7 mph7.6 kmh 27.46 in929.9 mb 0.00 in0.0 mm 0.00 in/hr0.0 mm/hr 0.00 in0.0 mm
04:29 AM 59.6°F15.3°C 31.3°F-0.4°C 34% 1.3 mph N2.1 kmh N 2.2 mph3.5 kmh 27.46 in929.9 mb 0.00 in0.0 mm 0.00 in/hr0.0 mm/hr 0.00 in0.0 mm
04:24 AM 59.9°F15.5°C 31.6°F-0.2°C 34% 1.1 mph NE1.8 kmh NE 3.1 mph5.0 kmh 27.46 in929.9 mb 0.00 in0.0 mm 0.00 in/hr0.0 mm/hr 0.00 in0.0 mm
04:19 AM 59.7°F15.4°C 32.0°F0.0°C 35% 1.2 mph NE1.9 kmh NE 3.1 mph5.0 kmh 27.46 in929.9 mb 0.00 in0.0 mm 0.00 in/hr0.0 mm/hr 0.00 in0.0 mm
04:14 AM 59.5°F15.3°C 31.9°F-0.1°C 35% Calm Calm 3.1 mph5.0 kmh 27.46 in929.9 mb 0.00 in0.0 mm 0.00 in/hr0.0 mm/hr 0.00 in0.0 mm
04:09 AM 59.4°F15.2°C 31.7°F-0.2°C 35% 0.1 mph N0.2 kmh N 2.7 mph4.3 kmh 27.46 in929.9 mb 0.00 in0.0 mm 0.00 in/hr0.0 mm/hr 0.00 in0.0 mm
04:04 AM 59.4°F15.2°C 31.7°F-0.2°C 35% 1.9 mph NW3.1 kmh NW 4.7 mph7.6 kmh 27.46 in929.9 mb 0.00 in0.0 mm 0.00 in/hr0.0 mm/hr 0.00 in0.0 mm
03:59 AM 59.4°F15.2°C 31.7°F-0.2°C 35% 2.2 mph NW3.5 kmh NW 4.7 mph7.6 kmh 27.46 in929.9 mb 0.00 in0.0 mm 0.00 in/hr0.0 mm/hr 0.00 in0.0 mm
03:54 AM 59.3°F15.2°C 31.6°F-0.2°C 35% 2.2 mph NE3.5 kmh NE 3.8 mph6.1 kmh 27.46 in929.9 mb 0.00 in0.0 mm 0.00 in/hr0.0 mm/hr 0.00 in0.0 mm
03:49 AM 59.2°F15.1°C 31.6°F-0.2°C 35% 1.2 mph NNE1.9 kmh NNE 6.5 mph10.5 kmh 27.46 in929.9 mb 0.00 in0.0 mm 0.00 in/hr0.0 mm/hr 0.00 in0.0 mm
03:44 AM 59.3°F15.2°C 31.6°F-0.2°C 35% 1.6 mph NNE2.6 kmh NNE 6.5 mph10.5 kmh 27.46 in929.9 mb 0.00 in0.0 mm 0.00 in/hr0.0 mm/hr 0.00 in0.0 mm
03:39 AM 59.2°F15.1°C 31.6°F-0.2°C 35% 3.5 mph E5.6 kmh E 5.6 mph9.0 kmh 27.49 in930.9 mb 0.00 in0.0 mm 0.00 in/hr0.0 mm/hr 0.00 in0.0 mm
03:34 AM 59.2°F15.1°C 31.6°F-0.2°C 35% 2.9 mph NE4.7 kmh NE 4.9 mph7.9 kmh 27.49 in930.9 mb 0.00 in0.0 mm 0.00 in/hr0.0 mm/hr 0.00 in0.0 mm
03:29 AM 59.2°F15.1°C 31.6°F-0.2°C 35% 2.4 mph NNE3.9 kmh NNE 3.8 mph6.1 kmh 27.49 in930.9 mb 0.00 in0.0 mm 0.00 in/hr0.0 mm/hr 0.00 in0.0 mm
03:24 AM 59.2°F15.1°C 31.6°F-0.2°C 35% 2.3 mph NW3.7 kmh NW 3.8 mph6.1 kmh 27.49 in930.9 mb 0.00 in0.0 mm 0.00 in/hr0.0 mm/hr 0.00 in0.0 mm
03:19 AM 59.2°F15.1°C 31.6°F-0.2°C 35% 2.1 mph N3.4 kmh N 3.6 mph5.8 kmh 27.49 in930.9 mb 0.00 in0.0 mm 0.00 in/hr0.0 mm/hr 0.00 in0.0 mm
03:14 AM 59.2°F15.1°C 31.6°F-0.2°C 35% 2.5 mph NE4.0 kmh NE 3.6 mph5.8 kmh 27.49 in930.9 mb 0.00 in0.0 mm 0.00 in/hr0.0 mm/hr 0.00 in0.0 mm
03:09 AM 59.0°F15.0°C 31.4°F-0.3°C 35% 2.0 mph N3.2 kmh N 4.9 mph7.9 kmh 27.49 in930.9 mb 0.00 in0.0 mm 0.00 in/hr0.0 mm/hr 0.00 in0.0 mm
03:04 AM 59.0°F15.0°C 31.4°F-0.3°C 35% 2.7 mph N4.3 kmh N 4.9 mph7.9 kmh 27.49 in930.9 mb 0.00 in0.0 mm 0.00 in/hr0.0 mm/hr 0.00 in0.0 mm
02:59 AM 59.0°F15.0°C 31.4°F-0.3°C 35% 2.7 mph S4.3 kmh S 4.0 mph6.4 kmh 27.49 in930.9 mb 0.00 in0.0 mm 0.00 in/hr0.0 mm/hr 0.00 in0.0 mm
02:54 AM 59.0°F15.0°C 31.4°F-0.3°C 35% 3.0 mph NW4.8 kmh NW 4.3 mph6.9 kmh 27.49 in930.9 mb 0.00 in0.0 mm 0.00 in/hr0.0 mm/hr 0.00 in0.0 mm
02:49 AM 59.0°F15.0°C 31.4°F-0.3°C 35% 2.6 mph NW4.2 kmh NW 4.3 mph6.9 kmh 27.49 in930.9 mb 0.00 in0.0 mm 0.00 in/hr0.0 mm/hr 0.00 in0.0 mm
02:44 AM 59.1°F15.1°C 31.2°F-0.4°C 35% 2.4 mph N3.9 kmh N 3.6 mph5.8 kmh 27.49 in930.9 mb 0.00 in0.0 mm 0.00 in/hr0.0 mm/hr 0.00 in0.0 mm
02:39 AM 59.3°F15.2°C 30.9°F-0.6°C 34% 1.6 mph N2.6 kmh N 4.0 mph6.4 kmh 27.49 in930.9 mb 0.00 in0.0 mm 0.00 in/hr0.0 mm/hr 0.00 in0.0 mm
02:34 AM 59.6°F15.3°C 31.2°F-0.4°C 34% 0.9 mph NW1.4 kmh NW 5.4 mph8.7 kmh 27.49 in930.9 mb 0.00 in0.0 mm 0.00 in/hr0.0 mm/hr 0.00 in0.0 mm
02:29 AM 60.0°F15.6°C 31.6°F-0.2°C 34% 2.1 mph NW3.4 kmh NW 5.4 mph8.7 kmh 27.49 in930.9 mb 0.00 in0.0 mm 0.00 in/hr0.0 mm/hr 0.00 in0.0 mm
02:24 AM 59.9°F15.5°C 31.5°F-0.3°C 34% 1.7 mph SW2.7 kmh SW 4.3 mph6.9 kmh 27.49 in930.9 mb 0.00 in0.0 mm 0.00 in/hr0.0 mm/hr 0.00 in0.0 mm
02:19 AM 59.7°F15.4°C 31.3°F-0.4°C 34% 2.5 mph WNW4.0 kmh WNW 4.3 mph6.9 kmh 27.49 in930.9 mb 0.00 in0.0 mm 0.00 in/hr0.0 mm/hr 0.00 in0.0 mm
02:14 AM 59.5°F15.3°C 31.2°F-0.4°C 34% 1.5 mph WSW2.4 kmh WSW 5.6 mph9.0 kmh 27.49 in930.9 mb 0.00 in0.0 mm 0.00 in/hr0.0 mm/hr 0.00 in0.0 mm
02:09 AM 59.5°F15.3°C 31.2°F-0.4°C 34% 3.6 mph SW5.8 kmh SW 5.6 mph9.0 kmh 27.49 in930.9 mb 0.00 in0.0 mm 0.00 in/hr0.0 mm/hr 0.00 in0.0 mm
02:04 AM 59.5°F15.3°C 31.2°F-0.4°C 34% 2.1 mph W3.4 kmh W 3.1 mph5.0 kmh 27.49 in930.9 mb 0.00 in0.0 mm 0.00 in/hr0.0 mm/hr 0.00 in0.0 mm
01:59 AM 59.5°F15.3°C 31.2°F-0.4°C 34% 0.5 mph NNW0.8 kmh NNW 5.8 mph9.3 kmh 27.49 in930.9 mb 0.00 in0.0 mm 0.00 in/hr0.0 mm/hr 0.00 in0.0 mm
01:54 AM 59.5°F15.3°C 31.2°F-0.4°C 34% 4.0 mph N6.4 kmh N 5.8 mph9.3 kmh 27.49 in930.9 mb 0.00 in0.0 mm 0.00 in/hr0.0 mm/hr 0.00 in0.0 mm
01:49 AM 59.7°F15.4°C 31.3°F-0.4°C 34% 2.5 mph NW4.0 kmh NW 4.7 mph7.6 kmh 27.49 in930.9 mb 0.00 in0.0 mm 0.00 in/hr0.0 mm/hr 0.00 in0.0 mm
01:44 AM 59.6°F15.3°C 31.2°F-0.4°C 34% 2.0 mph NW3.2 kmh NW 3.1 mph5.0 kmh 27.49 in930.9 mb 0.00 in0.0 mm 0.00 in/hr0.0 mm/hr 0.00 in0.0 mm
01:39 AM 59.5°F15.3°C 31.2°F-0.4°C 34% 0.6 mph NNE1.0 kmh NNE 2.9 mph4.7 kmh 27.46 in929.9 mb 0.00 in0.0 mm 0.00 in/hr0.0 mm/hr 0.00 in0.0 mm
01:34 AM 59.4°F15.2°C 31.0°F-0.6°C 34% 1.0 mph NW1.6 kmh NW 3.1 mph5.0 kmh 27.46 in929.9 mb 0.00 in0.0 mm 0.00 in/hr0.0 mm/hr 0.00 in0.0 mm
01:29 AM 59.4°F15.2°C 31.0°F-0.6°C 34% 1.5 mph NW2.4 kmh NW 3.1 mph5.0 kmh 27.46 in929.9 mb 0.00 in0.0 mm 0.00 in/hr0.0 mm/hr 0.00 in0.0 mm
01:24 AM 59.4°F15.2°C 31.0°F-0.6°C 34% 1.5 mph W2.4 kmh W 3.8 mph6.1 kmh 27.49 in930.9 mb 0.00 in0.0 mm 0.00 in/hr0.0 mm/hr 0.00 in0.0 mm
01:19 AM 59.4°F15.2°C 31.0°F-0.6°C 34% 1.3 mph NNW2.1 kmh NNW 3.8 mph6.1 kmh 27.49 in930.9 mb 0.00 in0.0 mm 0.00 in/hr0.0 mm/hr 0.00 in0.0 mm
01:14 AM 59.4°F15.2°C 31.0°F-0.6°C 34% 0.4 mph NW0.6 kmh NW 2.2 mph3.5 kmh 27.49 in930.9 mb 0.00 in0.0 mm 0.00 in/hr0.0 mm/hr 0.00 in0.0 mm
01:09 AM 59.4°F15.2°C 31.0°F-0.6°C 34% Calm Calm 3.4 mph5.5 kmh 27.49 in930.9 mb 0.00 in0.0 mm 0.00 in/hr0.0 mm/hr 0.00 in0.0 mm
01:04 AM 59.4°F15.2°C 31.3°F-0.4°C 34% 0.7 mph SW1.1 kmh SW 3.4 mph5.5 kmh 27.49 in930.9 mb 0.00 in0.0 mm 0.00 in/hr0.0 mm/hr 0.00 in0.0 mm
12:59 AM 59.2°F15.1°C 31.6°F-0.2°C 35% 1.0 mph SW1.6 kmh SW 3.4 mph5.5 kmh 27.49 in930.9 mb 0.00 in0.0 mm 0.00 in/hr0.0 mm/hr 0.00 in0.0 mm
12:54 AM 59.2°F15.1°C 31.6°F-0.2°C 35% Calm Calm -- 27.49 in930.9 mb 0.00 in0.0 mm 0.00 in/hr0.0 mm/hr 0.00 in0.0 mm
12:49 AM 59.2°F15.1°C 31.6°F-0.2°C 35% Calm Calm 1.1 mph1.8 kmh 27.49 in930.9 mb 0.00 in0.0 mm 0.00 in/hr0.0 mm/hr 0.00 in0.0 mm
12:44 AM 59.2°F15.1°C 31.6°F-0.2°C 35% Calm Calm 3.1 mph5.0 kmh 27.49 in930.9 mb 0.00 in0.0 mm 0.00 in/hr0.0 mm/hr 0.00 in0.0 mm
12:39 AM 59.2°F15.1°C 31.5°F-0.3°C 35% 2.1 mph NNW3.4 kmh NNW 3.1 mph5.0 kmh 27.52 in931.9 mb 0.00 in0.0 mm 0.00 in/hr0.0 mm/hr 0.00 in0.0 mm
12:34 AM 59.2°F15.1°C 31.6°F-0.2°C 35% 1.3 mph NW2.1 kmh NW 3.1 mph5.0 kmh 27.52 in931.9 mb 0.00 in0.0 mm 0.00 in/hr0.0 mm/hr 0.00 in0.0 mm
12:29 AM 59.2°F15.1°C 31.6°F-0.2°C 35% 1.2 mph NW1.9 kmh NW 2.7 mph4.3 kmh 27.52 in931.9 mb 0.00 in0.0 mm 0.00 in/hr0.0 mm/hr 0.00 in0.0 mm
12:24 AM 59.2°F15.1°C 31.6°F-0.2°C 35% Calm Calm -- 27.52 in931.9 mb 0.00 in0.0 mm 0.00 in/hr0.0 mm/hr 0.00 in0.0 mm
12:19 AM 59.0°F15.0°C 31.4°F-0.3°C 35% Calm Calm -- 27.52 in931.9 mb 0.00 in0.0 mm 0.00 in/hr0.0 mm/hr 0.00 in0.0 mm
12:14 AM 59.0°F15.0°C 31.4°F-0.3°C 35% Calm Calm -- 27.52 in931.9 mb 0.00 in0.0 mm 0.00 in/hr0.0 mm/hr 0.00 in0.0 mm
12:09 AM 58.9°F14.9°C 31.4°F-0.3°C 35% Calm Calm -- 27.52 in931.9 mb 0.00 in0.0 mm 0.00 in/hr0.0 mm/hr 0.00 in0.0 mm
12:04 AM 58.9°F14.9°C 31.4°F-0.3°C 35% Calm Calm -- 27.52 in931.9 mb 0.00 in0.0 mm 0.00 in/hr0.0 mm/hr 0.00 in0.0 mm